Time;durP1;ratioP1;P1;durP2;ratioP2;P2;SDS_P1;SDS_P2;PMS_P1;PMS_P2;Temp;Humidity;BMP_temperature;BMP_pressure;BME280_temperature;BME280_humidity;BME280_pressure;Samples;Min_cycle;Max_cycle;Signal;HPM_P1;HPM_P2
2023/07/29 00:00:27;;;;;;;22.02;14.85;;;21.80;99.90;;;;;;5094916;28;20027;-76
2023/07/29 00:02:53;;;;;;;22.33;14.35;;;21.80;99.90;;;;;;5094349;28;20381;-77
2023/07/29 00:05:19;;;;;;;24.30;14.50;;;21.80;99.90;;;;;;5094438;28;20036;-77
2023/07/29 00:07:45;;;;;;;21.83;14.70;;;21.80;99.90;;;;;;5094418;28;20050;-76
2023/07/29 00:10:11;;;;;;;18.10;13.27;;;21.90;99.90;;;;;;5094723;28;20020;-75
2023/07/29 00:12:36;;;;;;;17.13;13.13;;;21.80;99.90;;;;;;5094319;28;20020;-77
2023/07/29 00:15:02;;;;;;;23.48;12.88;;;21.90;99.90;;;;;;5109311;28;20458;-76
2023/07/29 00:17:28;;;;;;;17.73;11.40;;;21.90;99.90;;;;;;5111294;28;20115;-77
2023/07/29 00:19:54;;;;;;;12.98;8.98;;;21.90;99.90;;;;;;5095268;28;20103;-77
2023/07/29 00:22:20;;;;;;;15.82;9.57;;;21.80;99.90;;;;;;5097253;28;20016;-77
2023/07/29 00:24:53;;;;;;;15.98;9.88;;;21.90;99.90;;;;;;5098314;28;20043;-76
2023/07/29 00:27:19;;;;;;;19.23;10.57;;;21.80;99.90;;;;;;5094555;28;20459;-76
2023/07/29 00:29:44;;;;;;;13.05;8.63;;;21.80;99.90;;;;;;5075484;28;20034;-76
2023/07/29 00:32:10;;;;;;;17.08;10.07;;;21.60;99.90;;;;;;5076460;28;20041;-77
2023/07/29 00:34:36;;;;;;;15.50;8.80;;;21.60;99.90;;;;;;5093677;28;20161;-76
2023/07/29 00:37:03;;;;;;;16.20;9.40;;;21.60;99.90;;;;;;5076084;28;20020;-77
2023/07/29 00:39:29;;;;;;;17.17;8.95;;;21.60;99.90;;;;;;5097911;28;20072;-76
2023/07/29 00:41:55;;;;;;;19.95;10.80;;;21.50;99.90;;;;;;5075316;28;20127;-77
2023/07/29 00:44:21;;;;;;;14.75;9.52;;;21.40;99.90;;;;;;5094040;28;20044;-76
2023/07/29 00:46:50;;;;;;;17.60;9.77;;;21.30;99.90;;;;;;5093853;28;20099;-76
2023/07/29 00:49:16;;;;;;;16.02;8.93;;;21.30;99.90;;;;;;5075150;28;20154;-77
2023/07/29 00:51:42;;;;;;;13.43;8.85;;;21.20;99.90;;;;;;5075254;28;20115;-77
2023/07/29 00:54:08;;;;;;;15.70;9.48;;;21.30;99.90;;;;;;5084318;28;20492;-77
2023/07/29 00:56:35;;;;;;;15.48;9.45;;;21.30;99.90;;;;;;5097874;28;20032;-77
2023/07/29 00:59:02;;;;;;;20.20;10.43;;;21.20;99.90;;;;;;5092640;28;20091;-77
2023/07/29 01:01:29;;;;;;;21.70;12.40;;;21.20;99.90;;;;;;5074542;28;20142;-76
2023/07/29 01:03:54;;;;;;;18.98;12.60;;;21.20;99.90;;;;;;5092044;28;20407;-77
2023/07/29 01:06:40;;;;;;;20.88;13.00;;;21.10;99.90;;;;;;5092154;28;20032;-77
2023/07/29 01:09:11;;;;;;;20.17;11.77;;;21.10;99.90;;;;;;5096442;28;20489;-76
2023/07/29 01:11:40;;;;;;;20.55;12.25;;;21.00;99.90;;;;;;5078452;28;20028;-77
2023/07/29 01:14:21;;;;;;;14.88;10.25;;;21.00;99.90;;;;;;5094663;28;20033;-76
2023/07/29 01:16:55;;;;;;;20.25;12.88;;;21.00;99.90;;;;;;5073966;28;20042;-76
2023/07/29 01:19:39;;;;;;;23.15;10.95;;;21.00;99.90;;;;;;5086845;28;20024;-77
2023/07/29 01:22:08;;;;;;;13.32;8.88;;;20.90;99.90;;;;;;5073746;28;20035;-76
2023/07/29 01:24:34;;;;;;;18.10;10.88;;;21.00;99.90;;;;;;5091883;28;20048;-76
2023/07/29 01:27:01;;;;;;;16.17;9.73;;;20.90;99.90;;;;;;5073479;28;20124;-76
2023/07/29 01:29:27;;;;;;;14.93;9.82;;;20.90;99.90;;;;;;5091527;28;20076;-76
2023/07/29 01:32:01;;;;;;;16.88;9.55;;;20.90;99.90;;;;;;5091889;28;20132;-76
2023/07/29 01:34:41;;;;;;;16.90;9.60;;;20.80;99.90;;;;;;5099798;28;20024;-75
2023/07/29 01:37:12;;;;;;;16.92;9.48;;;20.90;99.90;;;;;;5073170;28;20672;-75
2023/07/29 01:39:38;;;;;;;18.33;9.88;;;20.90;99.90;;;;;;5073356;28;20490;-76
2023/07/29 01:42:05;;;;;;;15.80;9.15;;;20.90;99.90;;;;;;5072875;28;20028;-76
2023/07/29 01:44:32;;;;;;;17.65;9.32;;;20.90;99.90;;;;;;5091487;28;20111;-76
2023/07/29 01:46:57;;;;;;;17.65;9.18;;;20.70;99.90;;;;;;5091940;28;20165;-76
2023/07/29 01:49:23;;;;;;;12.23;8.40;;;20.60;99.90;;;;;;5076822;28;20484;-76
2023/07/29 01:51:49;;;;;;;16.30;8.45;;;20.50;99.90;;;;;;5072813;28;20028;-76
2023/07/29 01:54:15;;;;;;;15.63;8.85;;;20.50;99.90;;;;;;5091209;28;20379;-76
2023/07/29 01:56:40;;;;;;;15.95;9.15;;;20.50;99.90;;;;;;5072798;28;20084;-75
2023/07/29 01:59:06;;;;;;;14.60;7.88;;;20.50;99.90;;;;;;5073009;28;20035;-77
2023/07/29 02:01:32;;;;;;;17.35;7.28;;;20.40;99.90;;;;;;5072850;28;20024;-76
2023/07/29 02:03:58;;;;;;;17.00;8.02;;;20.30;99.90;;;;;;5090057;28;20027;-76
2023/07/29 02:06:24;;;;;;;14.27;8.18;;;20.30;99.90;;;;;;5072958;28;20036;-76
2023/07/29 02:08:51;;;;;;;10.98;7.15;;;20.30;99.90;;;;;;5094647;28;20023;-76
2023/07/29 02:11:16;;;;;;;13.00;7.07;;;20.20;99.90;;;;;;5091185;28;20035;-76
2023/07/29 02:13:43;;;;;;;10.63;7.43;;;20.10;99.90;;;;;;5072786;28;20027;-77
2023/07/29 02:16:10;;;;;;;10.30;6.72;;;20.10;99.90;;;;;;5090944;28;20032;-76
2023/07/29 02:18:35;;;;;;;12.77;7.47;;;20.10;99.90;;;;;;5090709;28;20020;-76
2023/07/29 02:21:01;;;;;;;14.95;6.95;;;20.00;99.90;;;;;;5076525;28;20055;-75
2023/07/29 02:23:27;;;;;;;14.80;7.65;;;20.00;99.90;;;;;;5072883;28;20047;-76
2023/07/29 02:25:53;;;;;;;11.02;7.15;;;20.00;99.90;;;;;;5072042;28;20073;-75
2023/07/29 02:28:19;;;;;;;15.98;7.47;;;19.90;99.90;;;;;;5071960;28;20031;-75
2023/07/29 02:30:45;;;;;;;20.50;8.68;;;19.80;99.90;;;;;;5094752;28;20020;-75
2023/07/29 02:33:11;;;;;;;19.17;8.40;;;19.80;99.90;;;;;;5090571;28;20028;-76
2023/07/29 02:35:37;;;;;;;15.57;8.60;;;19.80;99.90;;;;;;5071851;28;20031;-76
2023/07/29 02:38:03;;;;;;;16.38;9.07;;;19.70;99.90;;;;;;5076687;28;20051;-75
2023/07/29 02:40:29;;;;;;;18.55;8.85;;;19.70;99.90;;;;;;5055297;28;20070;-75
2023/07/29 02:42:55;;;;;;;16.90;9.25;;;19.70;99.90;;;;;;5077107;28;20406;-76
2023/07/29 02:45:21;;;;;;;12.82;7.75;;;19.70;99.90;;;;;;5076820;28;20043;-76
2023/07/29 02:47:47;;;;;;;16.77;8.23;;;19.80;99.90;;;;;;5075552;28;20119;-75
2023/07/29 02:50:13;;;;;;;10.48;7.70;;;19.70;99.90;;;;;;5092932;28;20112;-76
2023/07/29 02:52:39;;;;;;;18.15;8.18;;;19.70;99.90;;;;;;5090180;28;20464;-76
2023/07/29 02:55:05;;;;;;;19.33;9.00;;;19.70;99.90;;;;;;5092009;28;20387;-75
2023/07/29 02:57:31;;;;;;;11.70;8.02;;;19.70;99.90;;;;;;5090328;28;20016;-76
2023/07/29 02:59:56;;;;;;;13.38;9.05;;;19.80;99.90;;;;;;5071943;28;20476;-76
2023/07/29 03:02:22;;;;;;;14.57;8.75;;;19.80;99.90;;;;;;5089837;28;20604;-76
2023/07/29 03:04:48;;;;;;;14.55;8.95;;;19.80;99.90;;;;;;5072208;28;20115;-75
2023/07/29 03:07:14;;;;;;;18.45;8.18;;;19.80;99.90;;;;;;5071707;28;20024;-76
2023/07/29 03:09:41;;;;;;;19.98;9.00;;;19.80;99.90;;;;;;5071864;28;20088;-76
2023/07/29 03:12:08;;;;;;;13.82;8.10;;;19.80;99.90;;;;;;5071727;28;20076;-76
2023/07/29 03:14:34;;;;;;;12.35;8.73;;;19.80;99.90;;;;;;5093573;28;20024;-76
2023/07/29 03:17:06;;;;;;;14.65;8.27;;;19.80;99.90;;;;;;5089649;28;20051;-76
2023/07/29 03:19:32;;;;;;;22.85;8.95;;;19.80;99.90;;;;;;5075385;28;20024;-76
2023/07/29 03:21:58;;;;;;;14.50;7.40;;;19.80;99.90;;;;;;5071905;28;20027;-76
2023/07/29 03:24:24;;;;;;;17.27;8.35;;;20.00;99.90;;;;;;5071706;28;20464;-76
2023/07/29 03:26:49;;;;;;;16.00;8.02;;;20.00;99.90;;;;;;5071652;28;20020;-76
2023/07/29 03:29:15;;;;;;;17.35;8.02;;;20.00;99.90;;;;;;5089739;28;20032;-76
2023/07/29 03:31:41;;;;;;;14.63;7.22;;;20.00;99.90;;;;;;5093774;28;20479;-76
2023/07/29 03:34:07;;;;;;;13.68;8.38;;;20.00;99.90;;;;;;5071604;28;20020;-76
2023/07/29 03:36:33;;;;;;;12.60;8.25;;;19.90;99.90;;;;;;5071458;28;20030;-76
2023/07/29 03:39:00;;;;;;;15.85;9.10;;;19.80;99.90;;;;;;5089797;28;20016;-76
2023/07/29 03:41:26;;;;;;;12.27;8.85;;;19.80;99.90;;;;;;5071556;28;20510;-76
2023/07/29 03:43:52;;;;;;;22.08;9.15;;;20.00;99.90;;;;;;5089559;28;20036;-76
2023/07/29 03:46:21;;;;;;;15.00;8.50;;;19.90;99.90;;;;;;5089601;28;20024;-76
2023/07/29 03:48:47;;;;;;;16.83;9.20;;;19.90;99.90;;;;;;5072192;28;20031;-76
2023/07/29 03:51:13;;;;;;;18.02;9.02;;;19.90;99.90;;;;;;5075530;28;20085;-76
2023/07/29 03:53:39;;;;;;;16.10;8.98;;;20.00;99.90;;;;;;5089670;28;20032;-76
2023/07/29 03:56:05;;;;;;;15.50;8.90;;;20.20;99.90;;;;;;5089036;28;20032;-76
2023/07/29 03:58:31;;;;;;;19.42;9.57;;;20.10;99.90;;;;;;5090019;28;20103;-76
2023/07/29 04:00:57;;;;;;;16.58;9.23;;;20.10;99.90;;;;;;5071052;28;20104;-77
2023/07/29 04:03:23;;;;;;;19.67;10.38;;;20.20;99.90;;;;;;5071258;28;20032;-77
2023/07/29 04:05:51;;;;;;;14.40;8.35;;;20.20;99.90;;;;;;5068821;28;20035;-76
2023/07/29 04:08:17;;;;;;;15.05;9.10;;;20.20;99.90;;;;;;5088096;28;20122;-76
2023/07/29 04:10:43;;;;;;;13.18;9.07;;;20.30;99.90;;;;;;5071212;28;20566;-76
2023/07/29 04:13:09;;;;;;;20.45;9.80;;;20.30;99.90;;;;;;5062366;28;20036;-77
2023/07/29 04:15:35;;;;;;;12.50;8.73;;;20.30;99.90;;;;;;5078935;28;20437;-77
2023/07/29 04:18:03;;;;;;;21.85;10.93;;;20.30;99.90;;;;;;5071149;28;20016;-76
2023/07/29 04:20:29;;;;;;;18.13;8.65;;;20.40;99.90;;;;;;5074587;28;20112;-77
2023/07/29 04:22:55;;;;;;;16.52;8.45;;;20.50;99.90;;;;;;5070432;28;20036;-76
2023/07/29 04:25:21;;;;;;;16.88;8.20;;;20.50;99.90;;;;;;5089868;28;20166;-77
2023/07/29 04:27:46;;;;;;;13.90;8.27;;;20.60;99.90;;;;;;5091935;28;20100;-76
2023/07/29 04:30:12;;;;;;;16.67;9.35;;;20.60;99.90;;;;;;5095678;28;20065;-77
2023/07/29 04:32:38;;;;;;;17.55;9.57;;;20.50;99.90;;;;;;5075175;28;20024;-77
2023/07/29 04:35:07;;;;;;;16.77;9.05;;;20.50;99.90;;;;;;5092576;28;20392;-77
2023/07/29 04:37:36;;;;;;;18.95;9.88;;;20.50;99.90;;;;;;5092672;28;20020;-77
2023/07/29 04:40:02;;;;;;;19.40;9.43;;;20.70;99.90;;;;;;5096533;28;20027;-75
2023/07/29 04:42:28;;;;;;;20.13;9.95;;;20.80;99.90;;;;;;5074572;28;20036;-76
2023/07/29 04:44:54;;;;;;;16.70;9.05;;;21.20;99.90;;;;;;5092471;28;20024;-76
2023/07/29 04:47:20;;;;;;;19.15;9.25;;;21.60;99.90;;;;;;5092789;28;20106;-77
2023/07/29 04:49:45;;;;;;;12.65;8.27;;;22.00;99.90;;;;;;5074498;28;20036;-76
2023/07/29 04:52:11;;;;;;;14.38;8.20;;;22.90;99.90;;;;;;5070443;28;20044;-76
2023/07/29 04:54:37;;;;;;;33.08;8.73;;;23.60;99.90;;;;;;5070881;28;20044;-76
2023/07/29 04:57:03;;;;;;;14.73;7.03;;;24.20;99.90;;;;;;5091830;28;20383;-77
2023/07/29 04:59:29;;;;;;;12.40;7.13;;;24.10;99.90;;;;;;5106353;28;20032;-76
2023/07/29 05:01:55;;;;;;;17.90;7.22;;;23.50;99.90;;;;;;5096232;28;20024;-74
2023/07/29 05:04:21;;;;;;;17.70;8.18;;;23.60;99.90;;;;;;5096067;28;20032;-76
2023/07/29 05:06:47;;;;;;;15.35;7.93;;;23.40;99.90;;;;;;5096057;28;20023;-75
2023/07/29 05:09:15;;;;;;;15.02;8.73;;;23.30;99.90;;;;;;5096476;28;20485;-76
2023/07/29 05:11:44;;;;;;;13.40;8.05;;;23.10;99.90;;;;;;5096582;28;20020;-76
2023/07/29 05:14:10;;;;;;;15.70;8.48;;;22.90;99.90;;;;;;5114926;28;20088;-75
2023/07/29 05:16:36;;;;;;;17.35;8.30;;;22.90;99.90;;;;;;5095434;28;20039;-74
2023/07/29 05:19:01;;;;;;;13.77;7.45;;;22.80;99.90;;;;;;5095892;28;20024;-75
2023/07/29 05:21:27;;;;;;;14.55;7.55;;;22.60;99.90;;;;;;5096543;28;20093;-74
2023/07/29 05:23:53;;;;;;;10.98;6.90;;;22.50;99.90;;;;;;5114537;28;20451;-75
2023/07/29 05:26:19;;;;;;;16.73;8.30;;;22.10;99.90;;;;;;5114653;28;20035;-76
2023/07/29 05:28:45;;;;;;;19.00;8.80;;;22.10;99.90;;;;;;5095782;28;20073;-75
2023/07/29 05:31:10;;;;;;;21.50;8.55;;;22.20;99.90;;;;;;5095955;28;20024;-74
2023/07/29 05:33:36;;;;;;;14.02;8.65;;;22.20;99.90;;;;;;5096103;28;20069;-76
2023/07/29 05:36:02;;;;;;;14.65;8.18;;;22.40;99.90;;;;;;5114245;28;20493;-76
2023/07/29 05:38:28;;;;;;;13.80;7.47;;;22.30;99.90;;;;;;5095024;28;20051;-76
2023/07/29 05:40:54;;;;;;;22.98;8.27;;;22.50;99.90;;;;;;5088626;28;20503;-75
2023/07/29 05:43:20;;;;;;;14.18;7.03;;;22.70;99.90;;;;;;5106789;28;20394;-76
2023/07/29 05:45:46;;;;;;;12.48;6.65;;;22.60;99.90;;;;;;5096047;28;20055;-73
2023/07/29 05:48:12;;;;;;;13.82;6.55;;;22.90;99.90;;;;;;5090989;28;20063;-74
2023/07/29 05:50:38;;;;;;;15.27;6.88;;;23.00;99.90;;;;;;5079508;28;20023;-74
2023/07/29 05:53:03;;;;;;;10.35;6.60;;;23.00;99.90;;;;;;5101037;28;20413;-75
2023/07/29 05:55:29;;;;;;;14.07;6.75;;;22.90;99.90;;;;;;5093059;28;20036;-74
2023/07/29 05:57:56;;;;;;;10.90;6.30;;;22.80;99.90;;;;;;5093550;28;20031;-74
2023/07/29 06:00:21;;;;;;;11.57;6.20;;;22.80;99.90;;;;;;5075222;28;20036;-75
2023/07/29 06:02:47;;;;;;;13.75;6.55;;;22.90;99.90;;;;;;5083853;28;20482;-73
2023/07/29 06:05:16;;;;;;;11.98;5.05;;;22.90;99.90;;;;;;5091883;28;20034;-74
2023/07/29 06:07:44;;;;;;;16.65;6.35;;;23.00;99.90;;;;;;5095111;28;20114;-75
2023/07/29 06:10:18;;;;;;;11.88;5.55;;;23.20;99.90;;;;;;5089380;28;20391;-74
2023/07/29 06:12:45;;;;;;;10.00;5.57;;;23.40;99.90;;;;;;5095169;28;20049;-74
2023/07/29 06:15:12;;;;;;;11.65;6.13;;;23.40;99.90;;;;;;5095570;28;20043;-74
2023/07/29 06:17:38;;;;;;;14.00;5.80;;;23.50;99.90;;;;;;5113654;28;20054;-75
2023/07/29 06:20:05;;;;;;;9.75;6.30;;;23.60;99.90;;;;;;5091582;28;20031;-75
2023/07/29 06:22:32;;;;;;;8.68;4.90;;;23.70;99.90;;;;;;5094784;28;20024;-74
2023/07/29 06:24:57;;;;;;;12.45;5.65;;;23.70;99.90;;;;;;5100786;28;20394;-75
2023/07/29 06:27:25;;;;;;;11.43;5.05;;;23.90;99.90;;;;;;5096393;28;20020;-75
2023/07/29 06:29:51;;;;;;;14.32;5.93;;;24.00;99.90;;;;;;5092931;28;20020;-75
2023/07/29 06:32:17;;;;;;;10.57;5.28;;;24.00;99.90;;;;;;5105637;28;20028;-75
2023/07/29 06:34:42;;;;;;;13.10;4.63;;;24.10;99.90;;;;;;5112853;28;20035;-75
2023/07/29 06:37:08;;;;;;;11.43;4.82;;;24.20;99.90;;;;;;5113538;28;20036;-74
2023/07/29 06:39:34;;;;;;;8.52;4.57;;;24.30;99.90;;;;;;5112799;28;20099;-75
2023/07/29 06:42:00;;;;;;;13.18;5.75;;;24.50;99.90;;;;;;5112666;28;20040;-75
2023/07/29 06:44:26;;;;;;;10.00;4.95;;;24.50;99.90;;;;;;5113074;28;20495;-75
2023/07/29 06:46:51;;;;;;;7.05;4.28;;;24.50;99.90;;;;;;5112999;28;20016;-75
2023/07/29 06:49:17;;;;;;;6.57;4.05;;;24.60;99.90;;;;;;5112679;28;20467;-75
2023/07/29 06:51:43;;;;;;;10.05;5.00;;;24.50;99.90;;;;;;5112884;28;20035;-74
2023/07/29 06:54:09;;;;;;;8.63;3.85;;;24.30;99.90;;;;;;5112580;28;20028;-74
2023/07/29 06:56:34;;;;;;;8.50;4.70;;;24.40;99.90;;;;;;5112770;28;20032;-75
2023/07/29 06:59:00;;;;;;;10.63;4.63;;;24.50;99.90;;;;;;5113002;28;20019;-74
2023/07/29 07:01:26;;;;;;;9.40;4.38;;;24.40;99.90;;;;;;5112436;28;20098;-74
2023/07/29 07:03:54;;;;;;;12.60;5.13;;;24.70;99.90;;;;;;5112996;28;20463;-76
2023/07/29 07:06:22;;;;;;;10.02;4.75;;;24.80;99.90;;;;;;5112393;28;20034;-75
2023/07/29 07:08:47;;;;;;;7.50;4.38;;;25.00;99.90;;;;;;5112551;28;20024;-74
2023/07/29 07:11:13;;;;;;;7.85;4.13;;;25.10;99.90;;;;;;5112376;28;20122;-76
2023/07/29 07:13:39;;;;;;;10.13;4.63;;;25.00;99.90;;;;;;5112149;28;20024;-78
2023/07/29 07:16:05;;;;;;;12.30;5.60;;;25.00;99.90;;;;;;5112524;28;20101;-76
2023/07/29 07:18:30;;;;;;;8.95;3.97;;;25.10;99.90;;;;;;5112332;28;20371;-76
2023/07/29 07:20:56;;;;;;;11.27;5.00;;;25.30;99.90;;;;;;5112539;28;20487;-76
2023/07/29 07:23:22;;;;;;;8.65;3.95;;;25.50;99.90;;;;;;5112282;28;20467;-73
2023/07/29 07:25:48;;;;;;;9.00;4.53;;;25.90;99.90;;;;;;5112139;28;20093;-76
2023/07/29 07:28:14;;;;;;;10.88;4.57;;;26.10;99.90;;;;;;5111701;28;20023;-75
2023/07/29 07:30:43;;;;;;;9.52;4.15;;;26.40;99.90;;;;;;5111928;28;20051;-77
2023/07/29 07:33:09;;;;;;;9.38;4.07;;;26.80;99.90;;;;;;5112185;28;20137;-77
2023/07/29 07:35:35;;;;;;;6.70;3.83;;;27.10;99.90;;;;;;5111722;28;20122;-78
2023/07/29 07:38:03;;;;;;;9.45;4.38;;;27.50;98.00;;;;;;5108699;28;20036;-77
2023/07/29 07:40:30;;;;;;;6.80;3.67;;;27.50;97.60;;;;;;5105730;28;20114;-76
2023/07/29 07:42:56;;;;;;;8.98;3.72;;;27.50;96.70;;;;;;5094245;28;20040;-80
2023/07/29 07:45:22;;;;;;;10.52;4.05;;;27.30;98.60;;;;;;5102600;28;20050;-79
2023/07/29 07:47:48;;;;;;;7.72;3.97;;;27.40;98.20;;;;;;5111952;28;20427;-75
2023/07/29 07:50:14;;;;;;;7.05;3.72;;;27.70;96.70;;;;;;5112319;28;20020;-77
2023/07/29 07:52:40;;;;;;;9.27;4.05;;;27.60;96.40;;;;;;5112185;28;20023;-79
2023/07/29 07:55:06;;;;;;;8.15;3.63;;;27.80;98.20;;;;;;5112066;28;20038;-79
2023/07/29 07:57:32;;;;;;;16.02;7.60;;;28.30;98.00;;;;;;5092480;28;20073;-79
2023/07/29 07:59:58;;;;;;;11.18;4.25;;;28.90;96.80;;;;;;5102291;28;20035;-79
2023/07/29 08:02:23;;;;;;;10.18;5.03;;;28.70;96.90;;;;;;5110397;28;20031;-80
2023/07/29 08:04:49;;;;;;;8.38;4.22;;;28.70;95.60;;;;;;5101941;28;20486;-78
2023/07/29 08:07:15;;;;;;;9.57;4.38;;;28.80;95.50;;;;;;5112193;28;20535;-80
2023/07/29 08:09:41;;;;;;;8.65;4.00;;;;;;;;;;5099801;28;20526;-77
2023/07/29 08:12:07;;;;;;;13.98;4.50;;;29.20;93.90;;;;;;5098999;28;20028;-80
2023/07/29 08:14:33;;;;;;;9.63;4.45;;;29.10;95.00;;;;;;5095183;28;20448;-79
2023/07/29 08:16:59;;;;;;;11.60;4.95;;;29.20;93.80;;;;;;5101400;28;20097;-73
2023/07/29 08:19:24;;;;;;;7.93;4.30;;;29.40;94.60;;;;;;5110208;28;20081;-78
2023/07/29 08:21:50;;;;;;;10.55;4.10;;;29.60;94.30;;;;;;5103028;28;20032;-77
2023/07/29 08:24:16;;;;;;;7.70;4.20;;;29.90;94.30;;;;;;5100706;28;20081;-74
2023/07/29 08:26:42;;;;;;;7.10;3.88;;;30.10;93.80;;;;;;5111126;28;20106;-79
2023/07/29 08:29:07;;;;;;;8.75;3.70;;;30.10;92.90;;;;;;5109193;28;20043;-78
2023/07/29 08:31:33;;;;;;;8.18;4.13;;;30.10;93.60;;;;;;5109650;28;20031;-80
2023/07/29 08:34:00;;;;;;;8.75;3.83;;;30.10;93.80;;;;;;5106202;27;20024;-75
2023/07/29 08:36:26;;;;;;;8.20;4.45;;;30.00;94.50;;;;;;5111292;28;20042;-79
2023/07/29 08:38:52;;;;;;;8.73;4.15;;;29.80;94.40;;;;;;5098277;28;20047;-79
2023/07/29 08:41:37;;;;;;;9.38;4.70;;;29.80;94.00;;;;;;5098886;28;20076;-80
2023/07/29 08:44:17;;;;;;;8.65;4.53;;;29.80;92.70;;;;;;5107406;28;20122;-79
2023/07/29 08:46:43;;;;;;;8.88;4.57;;;30.00;93.60;;;;;;5110835;28;20069;-80
2023/07/29 08:49:13;;;;;;;4.97;3.05;;;30.20;93.90;;;;;;5108807;28;20028;-80
2023/07/29 08:51:41;;;;;;;6.43;3.70;;;30.00;94.00;;;;;;5103028;28;20034;-79
2023/07/29 08:54:08;;;;;;;8.68;4.55;;;29.90;93.40;;;;;;5100101;28;20028;-81
2023/07/29 08:56:34;;;;;;;7.50;4.05;;;29.90;94.70;;;;;;5096678;28;20065;-75
2023/07/29 08:59:02;;;;;;;3.80;2.90;;;30.10;94.30;;;;;;5103535;28;20016;-76
2023/07/29 09:01:28;;;;;;;8.82;3.17;;;30.20;93.60;;;;;;5109226;28;20054;-78
2023/07/29 09:03:54;;;;;;;10.50;3.35;;;30.00;94.80;;;;;;5104252;28;20031;-80
2023/07/29 09:06:21;;;;;;;9.30;3.75;;;29.70;95.50;;;;;;5096774;28;20032;-80
2023/07/29 09:08:50;;;;;;;6.05;3.10;;;29.30;93.90;;;;;;5104712;28;20474;-80
2023/07/29 09:11:17;;;;;;;7.50;3.17;;;29.60;95.70;;;;;;5107407;28;20055;-81
2023/07/29 09:13:43;;;;;;;5.43;3.38;;;29.70;94.80;;;;;;5095075;28;20016;-77
2023/07/29 09:16:10;;;;;;;7.85;3.20;;;29.50;95.50;;;;;;5086548;28;20070;-81
2023/07/29 09:18:35;;;;;;;6.85;2.90;;;29.60;96.40;;;;;;5096966;28;20109;-78
2023/07/29 09:21:01;;;;;;;4.75;2.95;;;29.70;95.30;;;;;;5114805;28;20035;-73
2023/07/29 09:23:28;;;;;;;10.45;3.22;;;29.40;95.50;;;;;;5114615;28;20030;-76
2023/07/29 09:26:03;;;;;;;5.03;2.95;;;29.60;96.00;;;;;;5099601;28;20028;-81
2023/07/29 09:28:34;;;;;;;4.70;2.63;;;29.80;96.20;;;;;;5112361;28;20016;-81
2023/07/29 09:31:00;;;;;;;7.77;3.33;;;29.90;95.80;;;;;;5114079;28;20035;-79
2023/07/29 09:33:26;;;;;;;8.50;3.30;;;29.90;95.90;;;;;;5113832;28;20275;-79
2023/07/29 09:35:52;;;;;;;6.78;2.88;;;30.10;96.00;;;;;;5113673;28;20519;-80
2023/07/29 09:38:25;;;;;;;8.55;3.70;;;30.00;94.00;;;;;;5113335;28;20109;-80
2023/07/29 09:40:56;;;;;;;5.30;3.38;;;29.70;94.70;;;;;;5109058;28;20024;-79
2023/07/29 09:43:28;;;;;;;5.57;3.33;;;30.00;94.40;;;;;;5114289;28;20094;-80
2023/07/29 09:45:54;;;;;;;4.13;2.80;;;29.90;95.00;;;;;;5113044;28;20035;-80
2023/07/29 09:48:23;;;;;;;5.28;2.90;;;30.00;94.50;;;;;;5113571;28;20020;-79
2023/07/29 09:50:49;;;;;;;7.55;2.88;;;30.10;95.40;;;;;;5113803;28;20462;-79
2023/07/29 09:53:15;;;;;;;8.60;2.70;;;30.00;95.70;;;;;;5113020;28;20027;-81
2023/07/29 09:55:47;;;;;;;6.57;3.65;;;29.90;95.60;;;;;;5113531;28;20039;-79
2023/07/29 09:58:13;;;;;;;6.90;2.97;;;29.90;96.00;;;;;;5113333;28;20076;-76
2023/07/29 10:00:39;;;;;;;7.40;3.08;;;30.20;95.40;;;;;;5113517;28;20032;-79
2023/07/29 10:03:06;;;;;;;5.55;2.80;;;30.40;95.00;;;;;;5111907;28;20055;-79
2023/07/29 10:05:34;;;;;;;5.60;2.67;;;30.50;96.10;;;;;;5113910;28;20027;-79
2023/07/29 10:08:01;;;;;;;4.47;2.60;;;30.20;95.40;;;;;;5113414;28;20045;-80
2023/07/29 10:10:28;;;;;;;5.80;2.58;;;30.40;96.40;;;;;;5112925;28;20489;-78
2023/07/29 10:12:54;;;;;;;3.78;2.25;;;30.50;95.40;;;;;;5111889;28;20497;-75
2023/07/29 10:15:21;;;;;;;6.38;3.00;;;30.60;98.00;;;;;;5110139;28;20042;-81
2023/07/29 10:17:47;;;;;;;5.88;2.70;;;30.40;99.90;;;;;;5108307;28;20069;-80
2023/07/29 10:20:13;;;;;;;5.20;2.95;;;30.30;99.90;;;;;;5108360;28;20059;-80
2023/07/29 10:22:41;;;;;;;3.97;2.28;;;30.40;99.90;;;;;;5113705;28;20424;-81
2023/07/29 10:25:15;;;;;;;5.22;2.78;;;30.50;99.90;;;;;;5097918;28;20024;-81
2023/07/29 10:27:47;;;;;;;5.28;2.95;;;30.80;99.90;;;;;;5109078;28;20043;-78
2023/07/29 10:30:15;;;;;;;5.32;3.17;;;30.80;93.90;;;;;;5099510;28;20064;-80
2023/07/29 10:32:45;;;;;;;7.90;2.97;;;30.80;95.10;;;;;;5113175;28;20468;-74
2023/07/29 10:35:13;;;;;;;4.32;2.70;;;30.80;93.90;;;;;;5103153;28;20040;-76
2023/07/29 10:37:40;;;;;;;6.82;3.15;;;30.70;93.30;;;;;;5108036;28;20020;-78
2023/07/29 10:40:08;;;;;;;4.30;2.80;;;30.30;93.30;;;;;;5112704;28;20031;-77
2023/07/29 10:42:34;;;;;;;4.35;2.70;;;30.10;93.50;;;;;;5112952;28;20070;-80
2023/07/29 10:45:00;;;;;;;6.82;3.45;;;30.30;93.90;;;;;;5113200;28;20399;-77
2023/07/29 10:47:27;;;;;;;6.55;3.08;;;30.30;92.90;;;;;;5113160;28;20020;-80
2023/07/29 10:49:58;;;;;;;5.72;3.00;;;30.40;92.90;;;;;;5112602;28;20486;-81
2023/07/29 10:52:32;;;;;;;3.78;2.65;;;30.10;93.30;;;;;;5112366;28;20016;-81
2023/07/29 10:54:59;;;;;;;8.10;3.38;;;30.10;93.10;;;;;;5102904;28;20027;-82
2023/07/29 10:57:40;;;;;;;11.73;3.97;;;30.10;93.50;;;;;;5109351;28;20026;-82
2023/07/29 11:00:07;;;;;;;8.13;3.75;;;30.10;93.70;;;;;;5112949;28;20024;-81
2023/07/29 11:02:37;;;;;;;11.98;6.30;;;30.00;92.20;;;;;;5097207;28;20020;-77
2023/07/29 11:05:17;;;;;;;8.52;4.97;;;30.20;93.30;;;;;;5092709;28;20078;-81
2023/07/29 11:07:48;;;;;;;11.57;4.95;;;30.30;93.30;;;;;;5095107;28;20039;-80
2023/07/29 11:10:15;;;;;;;19.55;4.78;;;30.50;92.90;;;;;;5090825;28;20028;-81
2023/07/29 11:12:51;;;;;;;7.53;4.20;;;30.70;93.10;;;;;;5105755;28;20022;-77
2023/07/29 11:15:36;;;;;;;13.45;6.53;;;30.50;91.80;;;;;;5110494;28;20036;-74
2023/07/29 11:18:02;;;;;;;10.52;5.43;;;30.50;92.20;;;;;;5097477;28;20487;-79
2023/07/29 11:20:33;;;;;;;8.07;5.28;;;30.50;93.00;;;;;;5109121;28;20019;-82
2023/07/29 11:23:03;;;;;;;8.10;3.72;;;30.40;93.50;;;;;;5112415;28;20043;-81
2023/07/29 11:25:31;;;;;;;7.78;3.50;;;30.40;92.20;;;;;;5112103;28;20095;-81
2023/07/29 11:27:58;;;;;;;9.70;3.08;;;30.50;91.70;;;;;;5113028;28;20042;-74
2023/07/29 11:30:29;;;;;;;5.72;2.83;;;30.50;91.90;;;;;;5112281;28;20059;-78
2023/07/29 11:32:55;;;;;;;;;;;30.50;93.10;;;;;;5112743;28;20019;-82
2023/07/29 11:35:22;;;;;;;3.50;3.00;;;30.80;92.30;;;;;;5112229;28;20321;-81
2023/07/29 11:37:49;;;;;;;4.60;3.15;;;30.90;91.50;;;;;;5115917;28;20055;-81
2023/07/29 11:40:20;;;;;;;5.65;3.40;;;30.90;92.60;;;;;;5116063;28;20023;-79
2023/07/29 11:42:49;;;;;;;5.43;3.05;;;30.80;93.10;;;;;;5116282;28;20465;-80
2023/07/29 11:45:15;;;;;;;5.97;3.25;;;30.80;92.00;;;;;;5116625;28;20475;-79
2023/07/29 11:47:42;;;;;;;4.72;2.83;;;30.60;91.80;;;;;;5116375;28;20024;-82
2023/07/29 11:50:09;;;;;;;7.93;3.13;;;30.40;91.00;;;;;;5116275;28;20036;-79
2023/07/29 11:52:37;;;;;;;10.45;5.15;;;30.50;91.80;;;;;;5116355;28;20019;-82
2023/07/29 11:55:04;;;;;;;6.35;3.53;;;30.60;91.60;;;;;;5116335;28;20505;-78
2023/07/29 11:57:38;;;;;;;5.45;3.10;;;30.80;91.40;;;;;;5116041;28;20490;-80
2023/07/29 12:00:06;;;;;;;7.50;3.53;;;30.90;91.90;;;;;;5116485;28;20044;-80
2023/07/29 12:02:36;;;;;;;4.43;3.03;;;;;;;;;;5115990;28;20027;-82
2023/07/29 12:05:04;;;;;;;4.95;3.20;;;30.90;92.50;;;;;;5116105;28;20391;-78
2023/07/29 12:07:31;;;;;;;6.28;3.33;;;30.80;91.20;;;;;;5097586;28;20030;-81
2023/07/29 12:09:57;;;;;;;6.50;2.80;;;31.20;92.90;;;;;;5115732;28;20030;-81
2023/07/29 12:12:23;;;;;;;4.72;3.17;;;;;;;;;;5115889;28;20032;-81
2023/07/29 12:14:49;;;;;;;5.90;3.47;;;;;;;;;;5115227;28;20103;-77
2023/07/29 12:17:15;;;;;;;5.32;3.47;;;31.50;91.30;;;;;;5116110;28;20031;-81
2023/07/29 12:19:42;;;;;;;5.22;3.60;;;31.60;94.70;;;;;;5115320;28;20023;-81
2023/07/29 12:22:10;;;;;;;8.50;3.92;;;31.40;93.40;;;;;;5115967;28;20499;-81
2023/07/29 12:24:40;;;;;;;10.77;3.65;;;31.30;91.90;;;;;;5116297;28;20023;-81
2023/07/29 12:27:11;;;;;;;5.75;3.55;;;31.50;91.90;;;;;;5110272;28;20089;-82
2023/07/29 12:29:44;;;;;;;5.13;3.30;;;31.50;92.10;;;;;;5108394;28;20031;-81
2023/07/29 12:32:10;;;;;;;8.38;3.65;;;31.20;90.40;;;;;;5116127;28;20066;-79
2023/07/29 12:34:39;;;;;;;6.20;3.65;;;31.30;91.70;;;;;;5115422;28;20023;-80
2023/07/29 12:37:05;;;;;;;5.50;3.28;;;31.30;92.80;;;;;;5115560;28;20031;-81
2023/07/29 12:39:34;;;;;;;9.88;4.05;;;31.50;93.70;;;;;;5115164;28;20086;-82